Time;durP1;ratioP1;P1;durP2;ratioP2;P2;SDS_P1;SDS_P2;PMS_P1;PMS_P2;Temp;Humidity;BMP_temperature;BMP_pressure;BME280_temperature;BME280_humidity;BME280_pressure;Samples;Min_cycle;Max_cycle;Signal;HPM_P1;HPM_P2
2024/01/28 00:01:31;;;;;;;14.15;7.32;;;2.80;99.90;;;;;;5095103;28;20012;-86
2024/01/28 00:03:57;;;;;;;13.32;7.30;;;2.80;99.90;;;;;;5081502;28;20044;-86
2024/01/28 00:06:23;;;;;;;10.60;6.85;;;2.90;99.90;;;;;;5080887;28;20025;-85
2024/01/28 00:08:48;;;;;;;12.52;6.72;;;2.80;99.90;;;;;;5059862;28;20028;-86
2024/01/28 00:11:14;;;;;;;15.25;6.95;;;2.80;99.90;;;;;;5042472;28;20025;-85
2024/01/28 00:13:40;;;;;;;14.55;7.80;;;2.80;99.90;;;;;;5041734;28;20049;-86
2024/01/28 00:16:13;;;;;;;13.90;7.53;;;2.80;99.90;;;;;;5042127;28;20053;-85
2024/01/28 00:18:38;;;;;;;16.02;7.63;;;2.80;99.90;;;;;;5074834;28;20032;-85
2024/01/28 00:21:04;;;;;;;13.45;7.80;;;2.70;99.90;;;;;;5041520;28;20537;-85
2024/01/28 00:23:30;;;;;;;14.93;7.88;;;2.70;99.90;;;;;;5057847;28;20029;-85
2024/01/28 00:25:57;;;;;;;15.25;7.25;;;2.70;99.90;;;;;;5074340;28;20056;-85
2024/01/28 00:28:22;;;;;;;15.00;7.25;;;2.70;99.90;;;;;;5058177;28;20028;-86
2024/01/28 00:30:48;;;;;;;16.35;8.43;;;2.70;99.90;;;;;;5074192;28;20517;-85
2024/01/28 00:33:14;;;;;;;11.85;7.15;;;2.70;99.90;;;;;;5057964;28;20025;-86
2024/01/28 00:35:40;;;;;;;13.45;7.13;;;2.60;99.90;;;;;;5057841;28;20037;-86
2024/01/28 00:38:06;;;;;;;12.07;6.53;;;2.70;99.90;;;;;;5074321;28;20027;-85
2024/01/28 00:40:32;;;;;;;13.82;7.88;;;2.70;99.90;;;;;;5074451;28;20583;-86
2024/01/28 00:42:58;;;;;;;18.85;7.80;;;2.70;99.90;;;;;;5041160;28;20052;-86
2024/01/28 00:45:23;;;;;;;16.85;7.45;;;2.70;99.90;;;;;;5057295;28;20024;-86
2024/01/28 00:47:49;;;;;;;13.27;7.47;;;2.70;99.90;;;;;;5073927;28;20090;-85
2024/01/28 00:50:15;;;;;;;13.40;7.60;;;2.80;99.90;;;;;;5057386;28;20024;-85
2024/01/28 00:52:40;;;;;;;12.50;7.32;;;2.70;99.90;;;;;;5057519;28;20025;-85
2024/01/28 00:55:10;;;;;;;13.98;7.43;;;2.70;99.90;;;;;;5057655;28;20107;-86
2024/01/28 00:57:35;;;;;;;15.77;8.27;;;2.80;99.90;;;;;;5057404;28;20031;-85
2024/01/28 01:00:01;;;;;;;14.48;7.50;;;2.70;99.90;;;;;;5040637;28;20124;-86
2024/01/28 01:02:27;;;;;;;15.70;8.05;;;2.70;99.90;;;;;;5057228;28;20028;-86
2024/01/28 01:04:52;;;;;;;14.48;7.30;;;2.80;99.90;;;;;;5074983;28;20036;-86
2024/01/28 01:07:18;;;;;;;15.48;7.70;;;2.70;99.90;;;;;;5056920;28;20025;-85
2024/01/28 01:09:43;;;;;;;12.40;6.93;;;2.70;99.90;;;;;;5057243;28;20163;-85
2024/01/28 01:12:09;;;;;;;13.35;6.90;;;2.60;99.90;;;;;;5040628;28;20494;-85
2024/01/28 01:14:37;;;;;;;15.88;7.00;;;2.60;99.90;;;;;;5056965;28;20041;-85
2024/01/28 01:17:03;;;;;;;14.85;7.28;;;2.60;99.90;;;;;;5058937;28;20127;-85
2024/01/28 01:19:29;;;;;;;16.13;7.82;;;2.60;99.90;;;;;;5085787;28;20075;-85
2024/01/28 01:21:57;;;;;;;13.50;7.05;;;2.60;99.90;;;;;;5098179;28;20005;-86
2024/01/28 01:24:23;;;;;;;13.32;7.03;;;2.50;99.90;;;;;;5080764;28;20028;-85
2024/01/28 01:26:48;;;;;;;12.18;6.40;;;2.50;99.90;;;;;;5078607;28;20092;-85
2024/01/28 01:29:14;;;;;;;13.95;6.90;;;2.50;99.90;;;;;;5075785;28;20056;-86
2024/01/28 01:31:40;;;;;;;14.60;7.13;;;2.50;99.90;;;;;;5040750;28;20024;-85
2024/01/28 01:34:05;;;;;;;14.20;6.97;;;2.50;99.90;;;;;;5073434;28;20033;-85
2024/01/28 01:36:32;;;;;;;10.98;5.38;;;2.50;99.90;;;;;;5073568;28;20029;-85
2024/01/28 01:38:57;;;;;;;11.95;7.03;;;2.40;99.90;;;;;;5040430;28;20040;-86
2024/01/28 01:41:25;;;;;;;12.70;6.47;;;2.40;99.90;;;;;;5073470;28;20060;-86
2024/01/28 01:43:51;;;;;;;11.48;6.40;;;2.50;99.90;;;;;;5056754;28;20036;-86
2024/01/28 01:46:17;;;;;;;16.70;6.63;;;2.40;99.90;;;;;;5056604;28;20119;-86
2024/01/28 01:48:43;;;;;;;10.77;5.88;;;2.40;99.90;;;;;;5056622;28;20123;-86
2024/01/28 01:51:11;;;;;;;16.45;7.10;;;2.40;99.90;;;;;;5040011;28;20024;-86
2024/01/28 01:53:38;;;;;;;16.08;6.53;;;2.40;99.90;;;;;;5073209;28;20543;-86
2024/01/28 01:56:05;;;;;;;13.23;6.68;;;2.50;99.90;;;;;;5074619;28;20032;-86
2024/01/28 01:58:31;;;;;;;14.63;6.53;;;2.50;99.90;;;;;;5073115;28;20037;-86
2024/01/28 02:00:58;;;;;;;15.23;7.10;;;2.50;99.90;;;;;;5056932;28;20060;-86
2024/01/28 02:03:26;;;;;;;15.65;7.30;;;2.50;99.90;;;;;;5072759;28;20021;-85
2024/01/28 02:05:52;;;;;;;14.48;6.40;;;2.40;99.90;;;;;;5056515;28;20603;-85
2024/01/28 02:08:18;;;;;;;17.83;6.88;;;2.50;99.90;;;;;;5072806;28;20031;-85
2024/01/28 02:10:45;;;;;;;13.35;6.10;;;2.40;99.90;;;;;;5056269;28;20078;-86
2024/01/28 02:13:11;;;;;;;14.93;6.68;;;2.40;99.90;;;;;;5074533;28;20116;-86
2024/01/28 02:15:40;;;;;;;13.98;6.85;;;2.40;99.90;;;;;;5076414;28;20123;-86
2024/01/28 02:18:06;;;;;;;14.52;7.15;;;2.30;99.90;;;;;;5059382;28;20042;-86
2024/01/28 02:20:31;;;;;;;11.30;6.63;;;2.30;99.90;;;;;;5094206;28;20081;-85
2024/01/28 02:22:57;;;;;;;14.10;7.43;;;2.30;99.90;;;;;;5075708;28;20035;-86
2024/01/28 02:25:23;;;;;;;14.13;7.05;;;2.30;99.90;;;;;;5076144;28;20127;-86
2024/01/28 02:27:49;;;;;;;14.85;6.90;;;2.30;99.90;;;;;;5059321;28;20062;-86
2024/01/28 02:30:15;;;;;;;12.40;6.70;;;2.20;99.90;;;;;;5076697;28;20067;-85
2024/01/28 02:32:51;;;;;;;12.48;6.82;;;2.20;99.90;;;;;;5060485;28;20028;-86
2024/01/28 02:35:17;;;;;;;15.15;7.13;;;2.20;99.90;;;;;;5063827;28;20047;-86
2024/01/28 02:37:43;;;;;;;15.18;7.20;;;2.10;99.90;;;;;;5064046;28;20023;-85
2024/01/28 02:40:09;;;;;;;15.25;7.13;;;2.10;99.90;;;;;;5084502;28;20032;-84
2024/01/28 02:42:35;;;;;;;13.07;6.90;;;2.10;99.90;;;;;;5086150;28;20028;-86
2024/01/28 02:45:01;;;;;;;11.50;6.65;;;2.10;99.90;;;;;;5087514;28;20028;-85
2024/01/28 02:47:27;;;;;;;14.27;6.93;;;2.10;99.90;;;;;;5080309;28;20066;-85
2024/01/28 02:49:53;;;;;;;12.48;7.55;;;2.10;99.90;;;;;;5046686;28;20024;-85
2024/01/28 02:52:19;;;;;;;11.95;6.85;;;2.00;99.90;;;;;;5080171;28;20115;-86
2024/01/28 02:54:44;;;;;;;12.95;7.45;;;2.00;99.90;;;;;;5046156;28;20024;-86
2024/01/28 02:57:10;;;;;;;15.02;7.43;;;2.00;99.90;;;;;;5063152;28;20035;-86
2024/01/28 02:59:36;;;;;;;17.55;6.85;;;1.90;99.90;;;;;;5063077;28;20031;-87
2024/01/28 03:02:01;;;;;;;14.27;6.55;;;1.90;99.90;;;;;;5046329;28;20032;-85
2024/01/28 03:04:27;;;;;;;13.77;7.20;;;1.90;99.90;;;;;;5062847;28;20463;-86
2024/01/28 03:06:53;;;;;;;12.35;5.72;;;1.90;99.90;;;;;;5046513;28;20123;-86
2024/01/28 03:09:18;;;;;;;9.68;6.40;;;1.90;99.90;;;;;;5046235;28;20028;-85
2024/01/28 03:11:44;;;;;;;15.00;6.78;;;1.90;99.90;;;;;;5062783;28;20020;-85
2024/01/28 03:14:10;;;;;;;10.65;6.63;;;1.90;99.90;;;;;;5096854;28;20380;-86
2024/01/28 03:16:36;;;;;;;14.25;6.35;;;2.00;99.90;;;;;;5079176;28;20054;-85
2024/01/28 03:19:02;;;;;;;14.55;6.97;;;1.90;99.90;;;;;;5097186;28;20074;-86
2024/01/28 03:21:28;;;;;;;10.18;5.95;;;2.00;99.90;;;;;;5062076;28;20080;-86
2024/01/28 03:23:54;;;;;;;14.88;6.07;;;2.00;99.90;;;;;;5062770;28;20482;-86
2024/01/28 03:26:19;;;;;;;12.40;6.22;;;2.00;99.90;;;;;;5079086;28;20046;-86
2024/01/28 03:28:45;;;;;;;12.55;5.95;;;2.00;99.90;;;;;;5062572;28;20028;-85
2024/01/28 03:31:11;;;;;;;10.57;6.07;;;2.00;99.90;;;;;;5062396;28;20114;-85
2024/01/28 03:33:37;;;;;;;11.00;5.43;;;2.00;99.90;;;;;;5062450;28;20126;-85
2024/01/28 03:36:04;;;;;;;14.90;6.20;;;2.00;99.90;;;;;;5061736;28;20040;-85
2024/01/28 03:38:29;;;;;;;10.23;5.80;;;2.00;99.90;;;;;;5045840;28;20043;-86
2024/01/28 03:40:55;;;;;;;10.25;5.50;;;2.00;99.90;;;;;;5079310;28;20110;-86
2024/01/28 03:43:20;;;;;;;13.07;5.55;;;2.10;99.90;;;;;;5062565;28;20097;-86
2024/01/28 03:45:46;;;;;;;14.45;6.00;;;2.10;99.90;;;;;;5096521;28;20067;-85
2024/01/28 03:48:12;;;;;;;10.35;5.95;;;2.10;99.90;;;;;;5062360;28;20440;-86
2024/01/28 03:50:37;;;;;;;13.77;5.90;;;2.10;99.90;;;;;;5062274;28;20038;-86
2024/01/28 03:53:04;;;;;;;11.93;6.57;;;2.10;99.90;;;;;;5068365;28;20028;-85
2024/01/28 03:55:30;;;;;;;15.32;5.85;;;2.10;99.90;;;;;;5084195;28;20040;-85
2024/01/28 03:57:56;;;;;;;14.40;6.25;;;2.10;99.90;;;;;;5069573;28;20028;-86
2024/01/28 04:00:28;;;;;;;14.05;6.72;;;2.10;99.90;;;;;;5112816;28;20031;-86
2024/01/28 04:02:54;;;;;;;15.80;7.60;;;2.00;99.90;;;;;;5064625;28;20020;-86
2024/01/28 04:05:20;;;;;;;10.52;5.55;;;1.90;99.90;;;;;;5078890;28;20035;-86
2024/01/28 04:07:45;;;;;;;14.63;7.15;;;1.90;99.90;;;;;;5061887;28;20020;-85
2024/01/28 04:10:15;;;;;;;11.77;6.28;;;1.90;99.90;;;;;;5061478;28;20028;-86
2024/01/28 04:12:40;;;;;;;13.07;6.40;;;1.90;99.90;;;;;;5078445;28;20483;-85
2024/01/28 04:15:06;;;;;;;13.55;6.43;;;1.80;99.90;;;;;;5078031;28;20049;-85
2024/01/28 04:17:32;;;;;;;13.07;6.35;;;1.80;99.90;;;;;;5078498;28;20043;-86
2024/01/28 04:19:58;;;;;;;12.43;5.75;;;1.80;99.90;;;;;;5078360;28;20070;-85
2024/01/28 04:22:23;;;;;;;13.20;6.18;;;1.80;99.90;;;;;;5061936;28;20024;-85
2024/01/28 04:24:52;;;;;;;11.73;5.93;;;1.80;99.90;;;;;;5078043;28;20064;-86
2024/01/28 04:27:18;;;;;;;11.40;6.30;;;1.70;99.90;;;;;;5045571;28;20024;-86
2024/01/28 04:29:44;;;;;;;14.32;6.38;;;1.70;99.90;;;;;;5096323;28;20023;-86
2024/01/28 04:32:11;;;;;;;14.15;5.90;;;1.70;99.90;;;;;;5077764;28;20020;-86
2024/01/28 04:34:36;;;;;;;9.82;5.55;;;1.70;99.90;;;;;;5061261;28;20423;-87
2024/01/28 04:37:02;;;;;;;10.52;5.75;;;1.70;99.90;;;;;;5044535;28;20035;-86
2024/01/28 04:39:28;;;;;;;12.57;6.40;;;1.70;99.90;;;;;;5061021;28;20066;-86
2024/01/28 04:41:53;;;;;;;12.77;6.50;;;1.70;99.90;;;;;;5078006;28;20028;-85
2024/01/28 04:44:20;;;;;;;12.18;6.13;;;1.70;99.90;;;;;;5060876;28;20484;-85
2024/01/28 04:46:46;;;;;;;12.63;6.60;;;1.70;99.90;;;;;;5077517;28;20055;-85
2024/01/28 04:49:12;;;;;;;13.32;6.50;;;1.70;99.90;;;;;;5077316;28;20468;-86
2024/01/28 04:51:37;;;;;;;13.02;6.05;;;1.80;99.90;;;;;;5060916;28;20146;-85
2024/01/28 04:54:03;;;;;;;13.68;5.93;;;1.80;99.90;;;;;;5044323;28;20082;-87
2024/01/28 04:56:29;;;;;;;8.95;5.50;;;1.90;99.90;;;;;;5044080;28;20101;-86
2024/01/28 04:58:54;;;;;;;9.15;5.18;;;1.90;99.90;;;;;;5044394;28;20024;-87
2024/01/28 05:01:20;;;;;;;9.52;5.63;;;1.90;99.90;;;;;;5043935;28;20024;-86
2024/01/28 05:03:46;;;;;;;12.10;6.00;;;2.00;99.90;;;;;;5076386;28;20039;-86
2024/01/28 05:06:12;;;;;;;12.43;5.50;;;2.00;99.90;;;;;;5060840;28;20024;-86
2024/01/28 05:08:37;;;;;;;11.48;5.38;;;2.00;99.90;;;;;;5046330;28;20095;-85
2024/01/28 05:11:03;;;;;;;11.18;5.32;;;2.00;99.90;;;;;;5108048;28;20025;-86
2024/01/28 05:13:29;;;;;;;11.65;4.90;;;2.00;99.90;;;;;;5118303;28;20035;-85
2024/01/28 05:15:56;;;;;;;10.43;5.53;;;2.00;99.90;;;;;;5084176;28;20016;-86
2024/01/28 05:18:22;;;;;;;10.50;5.53;;;2.00;99.90;;;;;;5101722;28;20009;-84
2024/01/28 05:20:47;;;;;;;13.07;5.65;;;2.00;99.90;;;;;;5081289;28;20189;-85
2024/01/28 05:23:13;;;;;;;12.65;5.65;;;2.00;99.90;;;;;;5064552;28;20122;-86
2024/01/28 05:25:39;;;;;;;15.13;6.28;;;2.10;99.90;;;;;;5077409;28;20383;-86
2024/01/28 05:28:07;;;;;;;12.35;5.90;;;2.10;99.90;;;;;;5060530;28;20472;-85
2024/01/28 05:30:33;;;;;;;10.95;5.45;;;2.10;99.90;;;;;;5077010;28;20020;-86
2024/01/28 05:32:58;;;;;;;10.50;4.93;;;2.10;99.90;;;;;;5060186;28;20024;-85
2024/01/28 05:35:24;;;;;;;11.45;5.63;;;2.10;99.90;;;;;;5059580;28;20491;-86
2024/01/28 05:37:50;;;;;;;10.43;6.13;;;2.10;99.90;;;;;;5094481;28;20099;-86
2024/01/28 05:40:16;;;;;;;11.93;6.13;;;2.10;99.90;;;;;;5043616;28;20521;-87
2024/01/28 05:42:42;;;;;;;13.18;5.07;;;2.10;99.90;;;;;;5060123;28;20028;-86
2024/01/28 05:45:09;;;;;;;9.57;5.38;;;2.00;99.90;;;;;;5060082;28;20498;-86
2024/01/28 05:47:34;;;;;;;12.75;5.43;;;2.10;99.90;;;;;;5077081;28;20032;-86
2024/01/28 05:50:00;;;;;;;10.75;4.97;;;2.10;99.90;;;;;;5076531;28;20127;-85
2024/01/28 05:52:26;;;;;;;9.93;5.30;;;2.10;99.90;;;;;;5076356;28;20130;-86
2024/01/28 05:54:51;;;;;;;14.85;5.80;;;2.10;99.90;;;;;;5076570;28;20486;-86
2024/01/28 05:57:17;;;;;;;10.15;5.40;;;2.00;99.90;;;;;;5076788;28;20028;-86
2024/01/28 05:59:43;;;;;;;13.23;5.35;;;2.00;99.90;;;;;;5059802;28;20028;-87
2024/01/28 06:02:08;;;;;;;8.75;4.93;;;2.00;99.90;;;;;;5060347;28;20115;-86
2024/01/28 06:04:34;;;;;;;10.13;6.03;;;2.00;99.90;;;;;;5059455;28;20024;-87
2024/01/28 06:07:00;;;;;;;9.60;4.82;;;2.00;99.90;;;;;;5059671;28;20035;-87
2024/01/28 06:09:26;;;;;;;9.60;5.28;;;2.00;99.90;;;;;;5059701;28;20411;-86
2024/01/28 06:11:52;;;;;;;12.57;5.47;;;2.00;99.90;;;;;;5076250;28;20029;-86
2024/01/28 06:14:18;;;;;;;9.20;4.90;;;2.00;99.90;;;;;;5077075;28;20044;-86
2024/01/28 06:16:43;;;;;;;8.82;5.10;;;2.00;99.90;;;;;;5081100;28;20043;-86
2024/01/28 06:19:09;;;;;;;11.98;4.95;;;2.00;99.90;;;;;;5064193;28;20031;-86
2024/01/28 06:21:34;;;;;;;10.60;5.18;;;2.00;99.90;;;;;;5081827;28;20461;-86
2024/01/28 06:24:00;;;;;;;11.57;4.78;;;2.00;99.90;;;;;;5066417;28;20114;-86
2024/01/28 06:26:26;;;;;;;10.85;4.60;;;2.00;99.90;;;;;;5084441;28;20036;-86
2024/01/28 06:28:51;;;;;;;9.70;4.72;;;1.90;99.90;;;;;;5084182;28;20033;-86
2024/01/28 06:31:19;;;;;;;8.68;4.57;;;1.90;99.90;;;;;;5104562;28;20113;-85
2024/01/28 06:33:45;;;;;;;9.15;4.85;;;1.90;99.90;;;;;;5086826;28;20031;-85
2024/01/28 06:36:21;;;;;;;13.68;5.13;;;1.90;99.90;;;;;;5091707;28;20032;-86
2024/01/28 06:38:47;;;;;;;12.18;4.90;;;1.90;99.90;;;;;;5080840;28;20097;-85
2024/01/28 06:41:16;;;;;;;10.70;5.00;;;1.90;99.90;;;;;;5063918;28;20099;-85
2024/01/28 06:43:42;;;;;;;9.57;4.53;;;1.90;99.90;;;;;;5079738;28;20032;-85
2024/01/28 06:46:08;;;;;;;10.32;5.45;;;2.00;99.90;;;;;;5063441;28;20043;-85
2024/01/28 06:48:34;;;;;;;13.10;5.07;;;1.90;99.90;;;;;;5063162;28;20024;-86
2024/01/28 06:51:04;;;;;;;11.43;4.80;;;1.90;99.90;;;;;;5063333;28;20032;-86
2024/01/28 06:53:30;;;;;;;9.85;4.43;;;1.90;99.90;;;;;;5079705;28;20089;-85
2024/01/28 06:55:56;;;;;;;12.60;4.70;;;1.90;99.90;;;;;;5079832;28;20464;-86
2024/01/28 06:58:22;;;;;;;9.38;5.15;;;1.90;99.90;;;;;;5063172;28;20114;-85
2024/01/28 07:00:48;;;;;;;11.27;5.32;;;2.00;99.90;;;;;;5063391;28;20024;-86
2024/01/28 07:03:13;;;;;;;9.70;4.72;;;1.90;99.90;;;;;;5079695;28;20028;-85
2024/01/28 07:05:39;;;;;;;9.32;4.43;;;1.90;99.90;;;;;;5062852;28;20032;-85
2024/01/28 07:08:07;;;;;;;11.95;4.57;;;1.90;99.90;;;;;;5046554;28;20479;-86
2024/01/28 07:10:33;;;;;;;12.13;4.70;;;2.00;99.90;;;;;;5079771;28;20114;-86
2024/01/28 07:12:59;;;;;;;9.48;4.28;;;2.00;99.90;;;;;;5062918;28;20055;-85
2024/01/28 07:15:24;;;;;;;6.78;4.25;;;2.00;99.90;;;;;;5062514;28;20075;-85
2024/01/28 07:17:50;;;;;;;9.52;4.85;;;2.10;99.90;;;;;;5079360;28;20081;-86
2024/01/28 07:20:16;;;;;;;10.75;4.43;;;2.00;99.90;;;;;;5079498;28;20085;-85
2024/01/28 07:22:42;;;;;;;11.45;4.72;;;2.00;99.90;;;;;;5062691;28;20115;-86
2024/01/28 07:25:08;;;;;;;9.38;4.47;;;2.10;99.90;;;;;;5078931;28;20476;-86
2024/01/28 07:27:34;;;;;;;8.52;4.15;;;2.10;99.90;;;;;;5096534;28;20030;-86
2024/01/28 07:29:59;;;;;;;9.32;4.85;;;2.10;99.90;;;;;;5045807;28;20032;-86
2024/01/28 07:32:25;;;;;;;8.80;4.20;;;2.10;99.90;;;;;;5062702;28;20063;-86
2024/01/28 07:34:51;;;;;;;8.77;4.60;;;2.10;99.90;;;;;;5097216;28;20020;-86
2024/01/28 07:37:18;;;;;;;11.35;5.00;;;2.10;99.90;;;;;;5062361;28;20039;-86
2024/01/28 07:39:43;;;;;;;11.15;4.82;;;2.10;99.90;;;;;;5062281;28;20052;-86
2024/01/28 07:42:09;;;;;;;10.50;4.95;;;2.10;99.90;;;;;;5062727;28;20052;-86
2024/01/28 07:44:35;;;;;;;11.05;4.25;;;2.10;99.90;;;;;;5066153;28;20494;-86
2024/01/28 07:47:02;;;;;;;11.63;4.32;;;2.10;99.90;;;;;;5086566;28;20012;-86
2024/01/28 07:49:28;;;;;;;7.88;4.32;;;2.10;99.90;;;;;;5087029;28;20031;-85
2024/01/28 07:51:54;;;;;;;13.48;4.35;;;2.10;99.90;;;;;;5101486;28;20025;-86
2024/01/28 07:54:20;;;;;;;10.23;4.90;;;2.20;99.90;;;;;;5046148;28;20081;-85
2024/01/28 07:56:45;;;;;;;9.45;4.90;;;2.20;99.90;;;;;;5079060;28;20044;-85
2024/01/28 07:59:11;;;;;;;9.73;5.03;;;2.20;99.90;;;;;;5078419;28;20093;-86
2024/01/28 08:01:37;;;;;;;10.23;4.60;;;2.20;99.90;;;;;;5078507;28;20032;-86
2024/01/28 08:04:05;;;;;;;9.98;4.50;;;2.20;99.90;;;;;;5078657;28;20039;-86
2024/01/28 08:06:31;;;;;;;8.45;4.65;;;2.30;99.90;;;;;;5096109;28;20024;-86
2024/01/28 08:08:57;;;;;;;9.10;4.95;;;2.30;99.90;;;;;;5078866;28;20028;-87
2024/01/28 08:11:23;;;;;;;8.88;4.97;;;2.40;99.90;;;;;;5096449;28;20341;-87
2024/01/28 08:13:49;;;;;;;8.95;5.38;;;2.40;99.90;;;;;;5078202;28;20047;-86
2024/01/28 08:16:15;;;;;;;9.35;4.70;;;2.40;99.90;;;;;;5061597;28;20032;-86
2024/01/28 08:18:40;;;;;;;7.35;4.32;;;2.40;99.90;;;;;;5061510;28;20028;-87
2024/01/28 08:21:06;;;;;;;9.32;4.97;;;2.40;99.90;;;;;;5078283;28;20184;-85
2024/01/28 08:23:34;;;;;;;8.75;4.63;;;2.40;99.90;;;;;;5077950;28;20028;-88
2024/01/28 08:25:59;;;;;;;10.20;5.05;;;2.50;99.90;;;;;;5061850;28;20046;-87
2024/01/28 08:28:25;;;;;;;9.10;4.75;;;2.50;99.90;;;;;;5062013;28;20028;-89
2024/01/28 08:30:51;;;;;;;7.85;4.53;;;2.60;99.90;;;;;;5078191;28;20081;-84
2024/01/28 08:33:17;;;;;;;6.30;4.22;;;2.60;99.90;;;;;;5077427;28;20024;-85
2024/01/28 08:35:43;;;;;;;9.38;4.43;;;2.60;99.90;;;;;;5077248;28;20032;-85
2024/01/28 08:38:10;;;;;;;12.38;5.00;;;2.70;99.90;;;;;;5075768;28;20375;-85
2024/01/28 08:40:37;;;;;;;9.30;4.43;;;2.60;99.90;;;;;;5095380;28;20016;-85
2024/01/28 08:43:05;;;;;;;9.15;4.18;;;2.70;99.90;;;;;;5077320;28;20031;-85
2024/01/28 08:45:33;;;;;;;8.50;4.43;;;2.70;99.90;;;;;;5060763;28;20036;-85
2024/01/28 08:47:59;;;;;;;7.53;4.35;;;2.80;99.90;;;;;;5060506;28;20069;-83
2024/01/28 08:50:25;;;;;;;9.27;4.50;;;2.80;99.90;;;;;;5060640;28;20435;-87
2024/01/28 08:52:53;;;;;;;9.55;4.22;;;2.80;99.90;;;;;;5060597;28;20051;-88
2024/01/28 08:55:22;;;;;;;7.93;3.95;;;2.90;99.90;;;;;;5045493;28;20036;-87
2024/01/28 08:57:47;;;;;;;9.23;4.13;;;2.90;99.90;;;;;;5077217;28;20028;-86
2024/01/28 09:00:14;;;;;;;7.80;4.00;;;2.90;99.90;;;;;;5061638;28;20055;-86
2024/01/28 09:02:39;;;;;;;7.53;4.32;;;3.00;99.90;;;;;;5104395;28;20073;-86
2024/01/28 09:05:07;;;;;;;6.97;4.00;;;3.00;99.90;;;;;;5083743;28;20008;-86
2024/01/28 09:07:33;;;;;;;9.60;5.07;;;3.00;99.90;;;;;;5101094;28;20024;-86
2024/01/28 09:10:00;;;;;;;9.32;4.20;;;3.10;99.90;;;;;;5067930;28;20031;-86
2024/01/28 09:12:26;;;;;;;6.80;3.58;;;3.10;99.90;;;;;;5079718;28;20028;-86
2024/01/28 09:14:52;;;;;;;10.15;4.03;;;3.10;99.90;;;;;;5060454;28;20051;-85
2024/01/28 09:17:17;;;;;;;8.95;4.10;;;3.20;99.90;;;;;;5095119;28;20173;-86
2024/01/28 09:19:43;;;;;;;8.25;4.15;;;3.20;99.90;;;;;;5043947;28;20065;-86
2024/01/28 09:22:09;;;;;;;9.68;4.43;;;3.20;99.90;;;;;;5043589;28;20024;-85
2024/01/28 09:24:34;;;;;;;7.18;3.72;;;3.30;99.90;;;;;;5094767;28;20032;-86
2024/01/28 09:27:01;;;;;;;7.18;3.45;;;3.40;99.90;;;;;;5043523;28;20040;-85
2024/01/28 09:29:28;;;;;;;6.05;3.58;;;3.40;99.90;;;;;;5060204;28;20034;-86
2024/01/28 09:31:56;;;;;;;7.10;4.20;;;3.40;99.90;;;;;;5043811;28;20061;-85
2024/01/28 09:34:23;;;;;;;8.55;4.30;;;3.50;99.90;;;;;;5044028;28;20150;-85
2024/01/28 09:36:49;;;;;;;8.75;3.92;;;3.50;99.90;;;;;;5059879;28;20032;-85
2024/01/28 09:39:15;;;;;;;6.78;3.67;;;3.60;99.90;;;;;;5094489;28;20054;-84
2024/01/28 09:42:16;;;;;;;8.95;3.58;;;3.60;99.90;;;;;;5059861;28;20032;-85
2024/01/28 09:44:42;;;;;;;6.72;3.50;;;3.70;99.90;;;;;;5076307;28;20036;-86
2024/01/28 09:47:08;;;;;;;5.95;3.60;;;3.70;99.90;;;;;;5076276;28;20195;-85
2024/01/28 09:49:39;;;;;;;5.75;3.20;;;3.70;99.90;;;;;;5042758;28;20111;-84
2024/01/28 09:52:10;;;;;;;5.80;3.30;;;3.80;99.90;;;;;;5060266;28;20111;-85
2024/01/28 09:54:40;;;;;;;;;;;3.80;99.90;;;;;;5077030;28;20020;-85
2024/01/28 09:57:07;;;;;;;8.25;3.78;;;3.90;99.90;;;;;;5076101;28;20010;-85
2024/01/28 09:59:36;;;;;;;5.82;3.28;;;3.90;99.90;;;;;;5076111;28;20471;-85
2024/01/28 10:02:03;;;;;;;6.97;4.00;;;4.00;99.90;;;;;;5094381;28;20081;-84
2024/01/28 10:04:30;;;;;;;5.78;2.95;;;4.00;99.90;;;;;;5076113;28;20106;-85
2024/01/28 10:06:59;;;;;;;7.57;3.30;;;4.10;99.90;;;;;;5075760;28;20024;-85
2024/01/28 10:09:26;;;;;;;8.90;3.47;;;4.20;99.90;;;;;;5076757;28;20020;-84
2024/01/28 10:11:52;;;;;;;5.68;3.78;;;4.20;99.90;;;;;;5059489;28;20035;-84
2024/01/28 10:14:18;;;;;;;6.53;3.40;;;4.30;99.90;;;;;;5059589;28;20052;-84
2024/01/28 10:16:48;;;;;;;8.23;3.88;;;4.40;99.90;;;;;;5077620;28;20035;-84
2024/01/28 10:19:14;;;;;;;5.38;2.72;;;4.40;99.90;;;;;;5076990;28;20043;-84
2024/01/28 10:21:41;;;;;;;7.80;3.10;;;4.50;99.90;;;;;;5071238;28;20032;-84
2024/01/28 10:24:11;;;;;;;7.68;2.97;;;4.50;99.90;;;;;;5100667;28;20015;-84
2024/01/28 10:26:37;;;;;;;6.78;2.80;;;4.60;99.90;;;;;;5100471;28;20040;-84
2024/01/28 10:29:03;;;;;;;7.13;3.03;;;4.70;99.90;;;;;;5099433;28;20019;-85
2024/01/28 10:31:30;;;;;;;4.88;3.00;;;4.70;99.90;;;;;;5047370;28;20028;-85
2024/01/28 10:33:56;;;;;;;6.65;3.15;;;4.70;99.90;;;;;;5059997;28;20467;-85
2024/01/28 10:36:22;;;;;;;6.50;3.03;;;4.80;99.90;;;;;;5059268;28;20035;-85
2024/01/28 10:38:48;;;;;;;8.55;3.70;;;4.80;99.90;;;;;;5076099;28;20036;-85
2024/01/28 10:41:18;;;;;;;8.75;3.38;;;4.90;99.90;;;;;;5076047;28;20426;-85
2024/01/28 10:43:55;;;;;;;5.75;3.03;;;5.00;99.90;;;;;;5093646;28;20027;-85
2024/01/28 10:46:38;;;;;;;4.85;2.75;;;5.10;99.90;;;;;;5094212;28;20045;-85
2024/01/28 10:49:06;;;;;;;5.93;3.40;;;5.10;99.90;;;;;;5075742;28;20383;-84
2024/01/28 10:51:33;;;;;;;6.97;3.30;;;5.20;99.90;;;;;;5093747;28;20028;-84
2024/01/28 10:54:02;;;;;;;7.65;2.83;;;5.20;99.90;;;;;;5075388;28;20027;-84
2024/01/28 10:56:28;;;;;;;7.28;3.00;;;5.30;99.90;;;;;;5093530;28;20032;-84
2024/01/28 10:58:54;;;;;;;5.90;3.08;;;5.40;99.90;;;;;;5042061;28;20368;-84
2024/01/28 11:01:20;;;;;;;5.97;3.20;;;5.40;99.90;;;;;;5059870;28;20024;-85
2024/01/28 11:03:46;;;;;;;7.13;3.00;;;5.50;99.90;;;;;;5079257;28;20028;-84
2024/01/28 11:06:16;;;;;;;7.57;2.80;;;5.50;99.90;;;;;;5078731;28;20032;-85
2024/01/28 11:08:42;;;;;;;5.60;2.47;;;5.60;99.90;;;;;;5079129;28;20030;-85
2024/01/28 11:11:08;;;;;;;7.03;2.97;;;5.60;99.90;;;;;;5078252;28;20024;-85
2024/01/28 11:13:34;;;;;;;6.60;2.83;;;5.70;99.90;;;;;;5045592;28;20059;-85
2024/01/28 11:15:59;;;;;;;5.53;2.65;;;5.70;99.90;;;;;;5046047;28;20122;-87
2024/01/28 11:18:29;;;;;;;5.85;2.80;;;5.80;99.90;;;;;;5078982;28;20035;-85
2024/01/28 11:20:55;;;;;;;6.40;3.00;;;5.80;99.90;;;;;;5078721;28;20058;-86
2024/01/28 11:23:21;;;;;;;5.15;2.70;;;5.90;99.90;;;;;;5045654;28;20028;-86
2024/01/28 11:25:47;;;;;;;6.07;2.88;;;6.00;99.90;;;;;;5062107;28;20510;-86
2024/01/28 11:28:14;;;;;;;7.68;3.63;;;6.00;99.90;;;;;;5096869;28;20421;-86
2024/01/28 11:30:40;;;;;;;6.13;3.00;;;6.10;99.90;;;;;;5096856;28;20076;-87
2024/01/28 11:33:12;;;;;;;4.82;2.58;;;6.10;99.90;;;;;;5045472;28;20384;-86
2024/01/28 11:35:43;;;;;;;6.60;3.13;;;6.10;99.90;;;;;;5078602;28;20032;-86
2024/01/28 11:38:12;;;;;;;5.50;3.00;;;6.20;99.90;;;;;;5079063;28;20028;-88
2024/01/28 11:40:38;;;;;;;6.53;3.13;;;6.30;99.90;;;;;;5078822;28;20024;-85
2024/01/28 11:43:08;;;;;;;4.00;2.70;;;6.30;99.90;;;;;;5080063;28;20024;-85
2024/01/28 11:45:37;;;;;;;5.10;2.92;;;6.40;99.90;;;;;;5085212;28;20064;-85
2024/01/28 11:48:13;;;;;;;5.45;2.90;;;6.40;99.90;;;;;;5085911;28;20369;-84
2024/01/28 11:50:39;;;;;;;5.93;3.13;;;6.50;99.90;;;;;;5066838;28;20077;-84
2024/01/28 11:53:05;;;;;;;5.53;2.42;;;6.50;99.90;;;;;;5059590;28;20119;-86
2024/01/28 11:55:31;;;;;;;8.65;3.42;;;6.60;99.90;;;;;;5078594;28;20119;-84
2024/01/28 11:57:56;;;;;;;6.22;2.88;;;6.60;99.90;;;;;;5062270;28;20037;-85
2024/01/28 12:00:25;;;;;;;4.43;2.78;;;6.70;99.90;;;;;;5061592;28;20369;-84
2024/01/28 12:02:51;;;;;;;10.00;3.22;;;6.70;99.90;;;;;;5061494;28;20028;-84
2024/01/28 12:05:17;;;;;;;4.82;2.80;;;6.80;99.90;;;;;;5061768;28;20024;-84
2024/01/28 12:07:42;;;;;;;3.88;2.75;;;6.80;99.90;;;;;;5061344;28;20028;-84
2024/01/28 12:10:13;;;;;;;5.07;2.72;;;6.90;99.90;;;;;;5061073;28;20032;-84
2024/01/28 12:12:42;;;;;;;6.18;3.03;;;6.90;99.90;;;;;;5095461;28;20024;-85
2024/01/28 12:15:09;;;;;;;6.95;3.22;;;7.00;99.90;;;;;;5077387;28;20727;-84
2024/01/28 12:17:36;;;;;;;7.90;3.53;;;7.00;99.90;;;;;;5095747;28;20099;-84
2024/01/28 12:20:03;;;;;;;6.63;3.58;;;7.10;99.90;;;;;;5077572;28;20110;-84
2024/01/28 12:22:39;;;;;;;7.35;3.58;;;7.10;99.90;;;;;;5077493;28;20481;-84
2024/01/28 12:25:09;;;;;;;8.23;3.80;;;7.20;99.90;;;;;;5077836;28;20379;-84
2024/01/28 12:27:36;;;;;;;5.90;3.15;;;7.20;99.90;;;;;;5077416;28;20056;-84
2024/01/28 12:30:02;;;;;;;4.72;3.05;;;7.20;99.90;;;;;;5077449;28;20024;-84
2024/01/28 12:32:27;;;;;;;5.15;3.10;;;7.20;99.90;;;;;;5095240;28;20392;-84
2024/01/28 12:34:54;;;;;;;6.95;3.83;;;7.30;99.90;;;;;;5077503;28;20043;-84
2024/01/28 12:37:23;;;;;;;4.53;2.80;;;7.40;99.90;;;;;;5044316;28;20035;-84
2024/01/28 12:39:49;;;;;;;7.00;3.30;;;7.40;99.90;;;;;;5061257;28;20031;-85
2024/01/28 12:42:18;;;;;;;8.63;3.70;;;7.40;99.90;;;;;;5060618;28;20020;-84
2024/01/28 12:44:44;;;;;;;6.05;3.13;;;7.50;99.90;;;;;;5060994;28;20028;-85
2024/01/28 12:47:10;;;;;;;7.03;3.42;;;7.60;99.90;;;;;;5043837;28;20495;-84
2024/01/28 12:49:35;;;;;;;6.35;3.08;;;7.60;99.90;;;;;;5076922;28;20028;-85